Decoded Metar for PASX (SOLDOTNA in AK, USA) (IATA:SXQ) | Meteo·Mobile Aviation Weather
aviador You're here:

PASX Decoded Metar

SOLDOTNA in AK, USA
Report Time2018-12-13 09:56:00
UTC Time2018-12-13 10:27:31
Flight Rules vfr VFR
Wind160° at 05 kt
W.Decomp.*RWY 07: 1.6 kt HW 4.7 kt RCW
W.Rank160° ranks 32
Current wind is above 160° avg. (4.9)
Visibility9999 m
Phenomena:N/A
Clouds:Overcast 047 Hf
Expected CloudBase > 400 ft AGL from Temp-Dew spread
Ceiling4,700 ft
Temp-7°C (ISA -22)
Dew Point-8°C (93% RH)
AAT-11.7°C
QNH991 hPa
Density Alt-1,791 ft
Elevation105 ft
Report Wrong Elevation
Raw Report
PASX 130956Z AUTO 16005KT 9SM OVC047 M07/M08 A2925 RMK AO2 SNE52
SLP914 P0000 T10671078 FZRANO=

Extra information for PASX:More info

Metar Taf Metar & Taf Last 4 Metars F.Rules Stats Wind Profile Meteogram Temp Stats Airport Information Weather charts Add Link Nearby VenuesMetar ALERT Operation Metar Decoded Social comments

AIRNAV info for PASX